sensor_id;sensor_type;location;lat;lon;timestamp;P1;durP1;ratioP1;P2;durP2;ratioP2
26337;SDS011;14050;50.950;4.460;2023-04-25T00:00:45;26.50;;;6.33;;
26337;SDS011;14050;50.950;4.460;2023-04-25T00:05:46;24.45;;;6.18;;
26337;SDS011;14050;50.950;4.460;2023-04-25T00:10:46;30.02;;;6.72;;
26337;SDS011;14050;50.950;4.460;2023-04-25T00:15:48;25.10;;;5.85;;
26337;SDS011;14050;50.950;4.460;2023-04-25T00:20:49;23.48;;;6.35;;
26337;SDS011;14050;50.950;4.460;2023-04-25T00:25:49;21.23;;;5.97;;
26337;SDS011;14050;50.950;4.460;2023-04-25T00:30:50;26.58;;;5.63;;
26337;SDS011;14050;50.950;4.460;2023-04-25T00:35:50;37.87;;;6.27;;
26337;SDS011;14050;50.950;4.460;2023-04-25T00:40:50;27.63;;;7.60;;
26337;SDS011;14050;50.950;4.460;2023-04-25T00:45:51;19.30;;;6.03;;
26337;SDS011;14050;50.950;4.460;2023-04-25T00:50:53;26.13;;;6.75;;
26337;SDS011;14050;50.950;4.460;2023-04-25T00:55:54;23.92;;;6.03;;
26337;SDS011;14050;50.950;4.460;2023-04-25T01:00:55;25.83;;;6.78;;
26337;SDS011;14050;50.950;4.460;2023-04-25T01:05:56;21.55;;;6.05;;
26337;SDS011;14050;50.950;4.460;2023-04-25T01:10:56;29.80;;;6.20;;
26337;SDS011;14050;50.950;4.460;2023-04-25T01:15:57;27.25;;;6.43;;
26337;SDS011;14050;50.950;4.460;2023-04-25T01:21:02;32.17;;;6.25;;
26337;SDS011;14050;50.950;4.460;2023-04-25T01:26:07;27.63;;;6.32;;
26337;SDS011;14050;50.950;4.460;2023-04-25T01:31:08;27.17;;;6.72;;
26337;SDS011;14050;50.950;4.460;2023-04-25T01:36:09;34.72;;;7.55;;
26337;SDS011;14050;50.950;4.460;2023-04-25T01:41:10;33.53;;;6.87;;
26337;SDS011;14050;50.950;4.460;2023-04-25T01:46:11;31.15;;;7.00;;
26337;SDS011;14050;50.950;4.460;2023-04-25T01:51:11;28.95;;;7.78;;
26337;SDS011;14050;50.950;4.460;2023-04-25T01:56:13;28.10;;;6.90;;
26337;SDS011;14050;50.950;4.460;2023-04-25T02:01:13;29.65;;;7.63;;
26337;SDS011;14050;50.950;4.460;2023-04-25T02:06:14;21.73;;;7.07;;
26337;SDS011;14050;50.950;4.460;2023-04-25T02:11:14;29.42;;;8.02;;
26337;SDS011;14050;50.950;4.460;2023-04-25T02:16:15;26.13;;;6.97;;
26337;SDS011;14050;50.950;4.460;2023-04-25T02:21:15;24.07;;;7.30;;
26337;SDS011;14050;50.950;4.460;2023-04-25T02:26:15;32.42;;;6.82;;
26337;SDS011;14050;50.950;4.460;2023-04-25T02:31:16;26.13;;;6.93;;
26337;SDS011;14050;50.950;4.460;2023-04-25T02:36:16;23.73;;;7.43;;
26337;SDS011;14050;50.950;4.460;2023-04-25T02:41:16;30.73;;;7.50;;
26337;SDS011;14050;50.950;4.460;2023-04-25T02:46:17;29.55;;;7.53;;
26337;SDS011;14050;50.950;4.460;2023-04-25T02:51:17;25.57;;;6.97;;
26337;SDS011;14050;50.950;4.460;2023-04-25T02:56:17;28.77;;;6.93;;
26337;SDS011;14050;50.950;4.460;2023-04-25T03:01:18;33.90;;;7.53;;
26337;SDS011;14050;50.950;4.460;2023-04-25T03:06:18;25.63;;;7.83;;
26337;SDS011;14050;50.950;4.460;2023-04-25T03:11:18;28.30;;;7.17;;
26337;SDS011;14050;50.950;4.460;2023-04-25T03:16:20;26.08;;;6.53;;
26337;SDS011;14050;50.950;4.460;2023-04-25T03:21:21;29.40;;;7.32;;
26337;SDS011;14050;50.950;4.460;2023-04-25T03:26:21;29.02;;;7.25;;
26337;SDS011;14050;50.950;4.460;2023-04-25T03:31:21;27.57;;;7.17;;
26337;SDS011;14050;50.950;4.460;2023-04-25T03:36:22;25.60;;;5.90;;
26337;SDS011;14050;50.950;4.460;2023-04-25T03:41:22;24.40;;;5.28;;
26337;SDS011;14050;50.950;4.460;2023-04-25T03:46:23;21.70;;;4.55;;
26337;SDS011;14050;50.950;4.460;2023-04-25T03:51:24;17.60;;;5.00;;
26337;SDS011;14050;50.950;4.460;2023-04-25T03:56:25;22.08;;;5.13;;
26337;SDS011;14050;50.950;4.460;2023-04-25T04:01:25;19.30;;;5.03;;
26337;SDS011;14050;50.950;4.460;2023-04-25T04:06:26;21.38;;;5.25;;
26337;SDS011;14050;50.950;4.460;2023-04-25T04:11:26;16.17;;;4.77;;
26337;SDS011;14050;50.950;4.460;2023-04-25T04:16:27;23.10;;;5.28;;
26337;SDS011;14050;50.950;4.460;2023-04-25T04:21:30;20.27;;;4.97;;
26337;SDS011;14050;50.950;4.460;2023-04-25T04:26:32;18.95;;;5.30;;
26337;SDS011;14050;50.950;4.460;2023-04-25T04:31:32;17.60;;;5.45;;
26337;SDS011;14050;50.950;4.460;2023-04-25T04:36:33;24.90;;;4.90;;
26337;SDS011;14050;50.950;4.460;2023-04-25T04:41:33;14.43;;;4.68;;
26337;SDS011;14050;50.950;4.460;2023-04-25T04:46:35;24.15;;;6.20;;
26337;SDS011;14050;50.950;4.460;2023-04-25T04:51:42;27.23;;;6.63;;
26337;SDS011;14050;50.950;4.460;2023-04-25T04:56:44;24.38;;;6.65;;
26337;SDS011;14050;50.950;4.460;2023-04-25T05:01:44;26.90;;;7.33;;
26337;SDS011;14050;50.950;4.460;2023-04-25T05:06:46;23.88;;;6.35;;
26337;SDS011;14050;50.950;4.460;2023-04-25T05:11:47;19.55;;;6.43;;
26337;SDS011;14050;50.950;4.460;2023-04-25T05:16:47;27.52;;;7.22;;
26337;SDS011;14050;50.950;4.460;2023-04-25T05:21:47;25.88;;;6.95;;
26337;SDS011;14050;50.950;4.460;2023-04-25T05:26:48;26.73;;;6.90;;
26337;SDS011;14050;50.950;4.460;2023-04-25T05:31:48;27.52;;;7.20;;
26337;SDS011;14050;50.950;4.460;2023-04-25T05:36:48;25.67;;;7.87;;
26337;SDS011;14050;50.950;4.460;2023-04-25T05:41:49;31.87;;;7.67;;
26337;SDS011;14050;50.950;4.460;2023-04-25T05:46:49;27.70;;;7.63;;
26337;SDS011;14050;50.950;4.460;2023-04-25T05:51:49;27.08;;;7.65;;
26337;SDS011;14050;50.950;4.460;2023-04-25T05:56:50;25.87;;;7.80;;
26337;SDS011;14050;50.950;4.460;2023-04-25T06:01:50;24.80;;;8.27;;
26337;SDS011;14050;50.950;4.460;2023-04-25T06:06:51;32.25;;;9.13;;
26337;SDS011;14050;50.950;4.460;2023-04-25T06:11:52;27.30;;;8.20;;
26337;SDS011;14050;50.950;4.460;2023-04-25T06:16:52;27.17;;;8.40;;
26337;SDS011;14050;50.950;4.460;2023-04-25T06:21:52;30.87;;;9.20;;
26337;SDS011;14050;50.950;4.460;2023-04-25T06:26:53;30.50;;;9.18;;
26337;SDS011;14050;50.950;4.460;2023-04-25T06:31:53;31.10;;;8.35;;
26337;SDS011;14050;50.950;4.460;2023-04-25T06:36:53;29.23;;;8.53;;
26337;SDS011;14050;50.950;4.460;2023-04-25T06:41:54;18.17;;;7.23;;
26337;SDS011;14050;50.950;4.460;2023-04-25T06:46:54;23.27;;;6.70;;
26337;SDS011;14050;50.950;4.460;2023-04-25T06:51:54;22.90;;;6.77;;
26337;SDS011;14050;50.950;4.460;2023-04-25T06:56:55;23.27;;;6.00;;
26337;SDS011;14050;50.950;4.460;2023-04-25T07:01:56;22.85;;;5.82;;
26337;SDS011;14050;50.950;4.460;2023-04-25T07:06:56;31.27;;;5.80;;
26337;SDS011;14050;50.950;4.460;2023-04-25T07:11:56;28.25;;;5.65;;
26337;SDS011;14050;50.950;4.460;2023-04-25T07:16:57;25.60;;;5.73;;
26337;SDS011;14050;50.950;4.460;2023-04-25T07:21:57;28.15;;;5.40;;
26337;SDS011;14050;50.950;4.460;2023-04-25T07:26:58;24.20;;;4.63;;
26337;SDS011;14050;50.950;4.460;2023-04-25T07:31:58;19.83;;;4.15;;
26337;SDS011;14050;50.950;4.460;2023-04-25T07:36:58;22.33;;;4.13;;
26337;SDS011;14050;50.950;4.460;2023-04-25T07:41:59;18.48;;;4.00;;
26337;SDS011;14050;50.950;4.460;2023-04-25T07:47:00;16.25;;;3.60;;
26337;SDS011;14050;50.950;4.460;2023-04-25T07:52:01;16.60;;;3.40;;
26337;SDS011;14050;50.950;4.460;2023-04-25T07:57:01;18.50;;;4.03;;
26337;SDS011;14050;50.950;4.460;2023-04-25T08:02:02;20.67;;;3.95;;
26337;SDS011;14050;50.950;4.460;2023-04-25T08:07:02;27.70;;;4.57;;
26337;SDS011;14050;50.950;4.460;2023-04-25T08:12:03;20.75;;;3.95;;
26337;SDS011;14050;50.950;4.460;2023-04-25T08:17:04;15.00;;;3.60;;
26337;SDS011;14050;50.950;4.460;2023-04-25T08:22:05;11.73;;;3.85;;
26337;SDS011;14050;50.950;4.460;2023-04-25T08:27:05;19.67;;;4.57;;
26337;SDS011;14050;50.950;4.460;2023-04-25T08:32:07;19.30;;;3.97;;
26337;SDS011;14050;50.950;4.460;2023-04-25T08:37:08;22.25;;;4.13;;
26337;SDS011;14050;50.950;4.460;2023-04-25T08:42:09;21.10;;;3.95;;
26337;SDS011;14050;50.950;4.460;2023-04-25T08:47:12;17.98;;;3.85;;
26337;SDS011;14050;50.950;4.460;2023-04-25T08:52:12;14.30;;;3.90;;
26337;SDS011;14050;50.950;4.460;2023-04-25T08:57:13;15.63;;;3.40;;
26337;SDS011;14050;50.950;4.460;2023-04-25T09:02:15;13.40;;;3.25;;
26337;SDS011;14050;50.950;4.460;2023-04-25T09:07:17;13.43;;;3.05;;
26337;SDS011;14050;50.950;4.460;2023-04-25T09:12:21;11.60;;;2.78;;
26337;SDS011;14050;50.950;4.460;2023-04-25T09:17:22;15.27;;;3.53;;
26337;SDS011;14050;50.950;4.460;2023-04-25T09:22:22;15.05;;;3.42;;
26337;SDS011;14050;50.950;4.460;2023-04-25T09:27:23;11.53;;;4.03;;
26337;SDS011;14050;50.950;4.460;2023-04-25T09:32:24;15.48;;;3.65;;
26337;SDS011;14050;50.950;4.460;2023-04-25T09:37:28;10.32;;;3.10;;
26337;SDS011;14050;50.950;4.460;2023-04-25T09:42:29;9.82;;;3.50;;
26337;SDS011;14050;50.950;4.460;2023-04-25T09:47:31;17.50;;;3.88;;
26337;SDS011;14050;50.950;4.460;2023-04-25T09:52:32;14.00;;;4.00;;
26337;SDS011;14050;50.950;4.460;2023-04-25T09:57:32;14.98;;;2.05;;
26337;SDS011;14050;50.950;4.460;2023-04-25T10:02:33;10.23;;;2.10;;
26337;SDS011;14050;50.950;4.460;2023-04-25T10:07:34;9.55;;;2.42;;
26337;SDS011;14050;50.950;4.460;2023-04-25T10:12:38;10.52;;;2.30;;
26337;SDS011;14050;50.950;4.460;2023-04-25T10:17:40;10.77;;;1.90;;
26337;SDS011;14050;50.950;4.460;2023-04-25T10:22:44;10.40;;;2.23;;
26337;SDS011;14050;50.950;4.460;2023-04-25T10:27:45;8.43;;;2.40;;
26337;SDS011;14050;50.950;4.460;2023-04-25T10:32:45;11.38;;;2.58;;
26337;SDS011;14050;50.950;4.460;2023-04-25T10:38:03;12.85;;;3.20;;
26337;SDS011;14050;50.950;4.460;2023-04-25T10:48:27;7.07;;;2.35;;
26337;SDS011;14050;50.950;4.460;2023-04-25T10:53:30;11.52;;;2.20;;
26337;SDS011;14050;50.950;4.460;2023-04-25T10:58:30;11.88;;;2.60;;
26337;SDS011;14050;50.950;4.460;2023-04-25T11:03:32;11.27;;;2.20;;
26337;SDS011;14050;50.950;4.460;2023-04-25T11:08:39;10.03;;;2.07;;
26337;SDS011;14050;50.950;4.460;2023-04-25T11:13:43;17.33;;;2.38;;
26337;SDS011;14050;50.950;4.460;2023-04-25T11:18:44;13.77;;;2.88;;
26337;SDS011;14050;50.950;4.460;2023-04-25T11:23:45;8.35;;;1.88;;
26337;SDS011;14050;50.950;4.460;2023-04-25T11:28:46;8.45;;;1.73;;
26337;SDS011;14050;50.950;4.460;2023-04-25T11:33:47;10.95;;;2.25;;
26337;SDS011;14050;50.950;4.460;2023-04-25T11:38:47;7.53;;;1.65;;
26337;SDS011;14050;50.950;4.460;2023-04-25T11:43:48;7.27;;;1.50;;
26337;SDS011;14050;50.950;4.460;2023-04-25T11:48:48;6.05;;;1.88;;
26337;SDS011;14050;50.950;4.460;2023-04-25T11:53:50;8.82;;;1.48;;
26337;SDS011;14050;50.950;4.460;2023-04-25T11:59:04;7.88;;;1.83;;
26337;SDS011;14050;50.950;4.460;2023-04-25T12:04:14;9.98;;;1.52;;
26337;SDS011;14050;50.950;4.460;2023-04-25T12:09:16;5.35;;;1.38;;
26337;SDS011;14050;50.950;4.460;2023-04-25T12:14:25;4.38;;;1.40;;
26337;SDS011;14050;50.950;4.460;2023-04-25T12:19:31;4.80;;;1.30;;
26337;SDS011;14050;50.950;4.460;2023-04-25T12:24:33;5.00;;;1.60;;
26337;SDS011;14050;50.950;4.460;2023-04-25T12:29:34;7.70;;;1.42;;
26337;SDS011;14050;50.950;4.460;2023-04-25T12:34:34;4.93;;;1.23;;
26337;SDS011;14050;50.950;4.460;2023-04-25T12:39:36;7.07;;;1.33;;
26337;SDS011;14050;50.950;4.460;2023-04-25T12:44:37;6.93;;;1.38;;
26337;SDS011;14050;50.950;4.460;2023-04-25T12:49:37;13.70;;;2.10;;
26337;SDS011;14050;50.950;4.460;2023-04-25T12:54:38;8.18;;;1.75;;
26337;SDS011;14050;50.950;4.460;2023-04-25T12:59:38;11.07;;;1.58;;
26337;SDS011;14050;50.950;4.460;2023-04-25T13:04:39;8.53;;;1.90;;
26337;SDS011;14050;50.950;4.460;2023-04-25T13:09:39;6.70;;;2.10;;
26337;SDS011;14050;50.950;4.460;2023-04-25T13:14:39;6.65;;;1.80;;
26337;SDS011;14050;50.950;4.460;2023-04-25T13:19:40;8.48;;;1.80;;
26337;SDS011;14050;50.950;4.460;2023-04-25T13:24:40;8.00;;;1.65;;
26337;SDS011;14050;50.950;4.460;2023-04-25T13:29:40;8.43;;;1.93;;
26337;SDS011;14050;50.950;4.460;2023-04-25T13:34:41;5.25;;;1.50;;
26337;SDS011;14050;50.950;4.460;2023-04-25T13:39:42;6.87;;;1.47;;
26337;SDS011;14050;50.950;4.460;2023-04-25T13:44:42;6.35;;;1.73;;
26337;SDS011;14050;50.950;4.460;2023-04-25T13:49:42;4.93;;;1.38;;
26337;SDS011;14050;50.950;4.460;2023-04-25T13:54:42;7.47;;;1.20;;
26337;SDS011;14050;50.950;4.460;2023-04-25T13:59:43;6.80;;;1.30;;
26337;SDS011;14050;50.950;4.460;2023-04-25T14:04:43;8.13;;;1.63;;
26337;SDS011;14050;50.950;4.460;2023-04-25T14:09:43;4.07;;;1.17;;
26337;SDS011;14050;50.950;4.460;2023-04-25T14:14:44;7.45;;;1.67;;
26337;SDS011;14050;50.950;4.460;2023-04-25T14:19:44;6.18;;;1.40;;
26337;SDS011;14050;50.950;4.460;2023-04-25T14:24:45;7.15;;;1.40;;
26337;SDS011;14050;50.950;4.460;2023-04-25T14:29:46;6.87;;;1.63;;
26337;SDS011;14050;50.950;4.460;2023-04-25T14:34:46;9.93;;;1.67;;
26337;SDS011;14050;50.950;4.460;2023-04-25T14:39:46;7.60;;;1.93;;
26337;SDS011;14050;50.950;4.460;2023-04-25T14:44:47;7.97;;;1.67;;
26337;SDS011;14050;50.950;4.460;2023-04-25T14:49:47;5.47;;;1.70;;
26337;SDS011;14050;50.950;4.460;2023-04-25T14:54:53;6.97;;;1.38;;
26337;SDS011;14050;50.950;4.460;2023-04-25T14:59:54;4.13;;;1.67;;
26337;SDS011;14050;50.950;4.460;2023-04-25T15:04:54;6.93;;;1.40;;
26337;SDS011;14050;50.950;4.460;2023-04-25T15:09:55;7.13;;;1.42;;
26337;SDS011;14050;50.950;4.460;2023-04-25T15:14:56;8.65;;;1.90;;
26337;SDS011;14050;50.950;4.460;2023-04-25T15:19:57;6.25;;;1.60;;
26337;SDS011;14050;50.950;4.460;2023-04-25T15:24:57;5.20;;;1.47;;
26337;SDS011;14050;50.950;4.460;2023-04-25T15:29:57;5.93;;;1.60;;
26337;SDS011;14050;50.950;4.460;2023-04-25T15:34:58;4.10;;;1.13;;
26337;SDS011;14050;50.950;4.460;2023-04-25T15:40:02;6.10;;;1.40;;
26337;SDS011;14050;50.950;4.460;2023-04-25T15:45:09;7.10;;;1.40;;
26337;SDS011;14050;50.950;4.460;2023-04-25T15:50:10;2.35;;;0.90;;
26337;SDS011;14050;50.950;4.460;2023-04-25T15:55:10;4.57;;;1.40;;
26337;SDS011;14050;50.950;4.460;2023-04-25T16:00:12;6.55;;;1.48;;
26337;SDS011;14050;50.950;4.460;2023-04-25T16:05:14;7.93;;;1.60;;
26337;SDS011;14050;50.950;4.460;2023-04-25T16:10:14;4.38;;;1.40;;
26337;SDS011;14050;50.950;4.460;2023-04-25T16:15:20;5.95;;;1.67;;
26337;SDS011;14050;50.950;4.460;2023-04-25T16:20:20;9.00;;;1.83;;
26337;SDS011;14050;50.950;4.460;2023-04-25T16:25:21;6.18;;;1.58;;
26337;SDS011;14050;50.950;4.460;2023-04-25T16:30:21;7.57;;;2.80;;
26337;SDS011;14050;50.950;4.460;2023-04-25T16:35:21;9.07;;;1.90;;
26337;SDS011;14050;50.950;4.460;2023-04-25T16:40:23;6.40;;;1.77;;
26337;SDS011;14050;50.950;4.460;2023-04-25T16:45:23;9.03;;;2.27;;
26337;SDS011;14050;50.950;4.460;2023-04-25T16:50:25;9.07;;;1.83;;
26337;SDS011;14050;50.950;4.460;2023-04-25T16:55:26;7.82;;;1.55;;
26337;SDS011;14050;50.950;4.460;2023-04-25T17:00:26;6.50;;;1.60;;
26337;SDS011;14050;50.950;4.460;2023-04-25T17:05:26;5.27;;;1.50;;
26337;SDS011;14050;50.950;4.460;2023-04-25T17:10:27;5.83;;;1.23;;
26337;SDS011;14050;50.950;4.460;2023-04-25T17:15:27;4.57;;;1.25;;
26337;SDS011;14050;50.950;4.460;2023-04-25T17:20:28;5.75;;;1.90;;
26337;SDS011;14050;50.950;4.460;2023-04-25T17:25:28;7.87;;;1.47;;
26337;SDS011;14050;50.950;4.460;2023-04-25T17:30:29;4.65;;;1.48;;
26337;SDS011;14050;50.950;4.460;2023-04-25T17:35:29;5.72;;;1.40;;
26337;SDS011;14050;50.950;4.460;2023-04-25T17:40:30;7.68;;;1.83;;
26337;SDS011;14050;50.950;4.460;2023-04-25T17:45:31;7.07;;;1.45;;
26337;SDS011;14050;50.950;4.460;2023-04-25T17:50:33;4.53;;;1.30;;
26337;SDS011;14050;50.950;4.460;2023-04-25T17:55:34;11.35;;;1.63;;
26337;SDS011;14050;50.950;4.460;2023-04-25T18:00:34;4.93;;;1.42;;
26337;SDS011;14050;50.950;4.460;2023-04-25T18:05:34;11.40;;;1.90;;
26337;SDS011;14050;50.950;4.460;2023-04-25T18:10:35;8.40;;;1.80;;
26337;SDS011;14050;50.950;4.460;2023-04-25T18:15:35;10.38;;;1.85;;
26337;SDS011;14050;50.950;4.460;2023-04-25T18:20:36;7.57;;;1.60;;
26337;SDS011;14050;50.950;4.460;2023-04-25T18:25:37;11.10;;;1.75;;
26337;SDS011;14050;50.950;4.460;2023-04-25T18:30:37;5.13;;;1.60;;
26337;SDS011;14050;50.950;4.460;2023-04-25T18:35:37;6.03;;;1.63;;
26337;SDS011;14050;50.950;4.460;2023-04-25T18:40:38;12.52;;;2.00;;
26337;SDS011;14050;50.950;4.460;2023-04-25T18:45:38;8.13;;;1.57;;
26337;SDS011;14050;50.950;4.460;2023-04-25T18:50:39;8.45;;;1.98;;
26337;SDS011;14050;50.950;4.460;2023-04-25T18:55:42;9.65;;;2.05;;
26337;SDS011;14050;50.950;4.460;2023-04-25T19:00:43;8.70;;;1.83;;
26337;SDS011;14050;50.950;4.460;2023-04-25T19:05:43;8.27;;;1.90;;
26337;SDS011;14050;50.950;4.460;2023-04-25T19:10:43;6.28;;;2.15;;
26337;SDS011;14050;50.950;4.460;2023-04-25T19:15:45;7.03;;;2.20;;
26337;SDS011;14050;50.950;4.460;2023-04-25T19:20:45;7.55;;;1.85;;
26337;SDS011;14050;50.950;4.460;2023-04-25T19:25:45;6.70;;;1.80;;
26337;SDS011;14050;50.950;4.460;2023-04-25T19:30:46;9.40;;;2.20;;
26337;SDS011;14050;50.950;4.460;2023-04-25T19:35:46;10.50;;;1.98;;
26337;SDS011;14050;50.950;4.460;2023-04-25T19:40:47;9.32;;;2.15;;
26337;SDS011;14050;50.950;4.460;2023-04-25T19:45:48;9.80;;;2.47;;
26337;SDS011;14050;50.950;4.460;2023-04-25T19:50:48;12.93;;;2.80;;
26337;SDS011;14050;50.950;4.460;2023-04-25T19:55:48;11.60;;;2.43;;
26337;SDS011;14050;50.950;4.460;2023-04-25T20:00:49;8.10;;;2.57;;
26337;SDS011;14050;50.950;4.460;2023-04-25T20:05:51;12.80;;;3.58;;
26337;SDS011;14050;50.950;4.460;2023-04-25T20:10:51;15.57;;;3.08;;
26337;SDS011;14050;50.950;4.460;2023-04-25T20:15:52;9.20;;;2.70;;
26337;SDS011;14050;50.950;4.460;2023-04-25T20:20:52;10.70;;;4.43;;
26337;SDS011;14050;50.950;4.460;2023-04-25T20:25:53;12.80;;;4.13;;
26337;SDS011;14050;50.950;4.460;2023-04-25T20:30:53;12.77;;;3.23;;
26337;SDS011;14050;50.950;4.460;2023-04-25T20:35:53;12.53;;;3.20;;
26337;SDS011;14050;50.950;4.460;2023-04-25T20:40:55;10.85;;;3.22;;
26337;SDS011;14050;50.950;4.460;2023-04-25T20:45:55;13.25;;;3.60;;
26337;SDS011;14050;50.950;4.460;2023-04-25T20:50:56;14.85;;;3.60;;
26337;SDS011;14050;50.950;4.460;2023-04-25T20:55:57;11.65;;;4.50;;
26337;SDS011;14050;50.950;4.460;2023-04-25T21:00:58;13.23;;;4.60;;
26337;SDS011;14050;50.950;4.460;2023-04-25T21:05:59;10.48;;;5.30;;
26337;SDS011;14050;50.950;4.460;2023-04-25T21:10:59;13.37;;;4.53;;
26337;SDS011;14050;50.950;4.460;2023-04-25T21:16:00;11.35;;;3.85;;
26337;SDS011;14050;50.950;4.460;2023-04-25T21:21:00;14.32;;;4.03;;
26337;SDS011;14050;50.950;4.460;2023-04-25T21:26:04;13.05;;;3.97;;
26337;SDS011;14050;50.950;4.460;2023-04-25T21:31:06;9.75;;;3.50;;
26337;SDS011;14050;50.950;4.460;2023-04-25T21:36:06;10.18;;;3.95;;
26337;SDS011;14050;50.950;4.460;2023-04-25T21:41:07;14.40;;;4.18;;
26337;SDS011;14050;50.950;4.460;2023-04-25T21:46:07;8.77;;;3.87;;
26337;SDS011;14050;50.950;4.460;2023-04-25T21:51:07;13.60;;;5.43;;
26337;SDS011;14050;50.950;4.460;2023-04-25T21:56:08;16.50;;;4.80;;
26337;SDS011;14050;50.950;4.460;2023-04-25T22:01:08;12.85;;;3.90;;
26337;SDS011;14050;50.950;4.460;2023-04-25T22:06:09;12.63;;;4.55;;
26337;SDS011;14050;50.950;4.460;2023-04-25T22:11:09;15.52;;;5.43;;
26337;SDS011;14050;50.950;4.460;2023-04-25T22:16:11;11.88;;;4.25;;
26337;SDS011;14050;50.950;4.460;2023-04-25T22:21:11;11.48;;;4.32;;
26337;SDS011;14050;50.950;4.460;2023-04-25T22:26:11;11.05;;;4.70;;
26337;SDS011;14050;50.950;4.460;2023-04-25T22:31:13;12.55;;;4.88;;
26337;SDS011;14050;50.950;4.460;2023-04-25T22:36:13;10.85;;;3.92;;
26337;SDS011;14050;50.950;4.460;2023-04-25T22:41:13;7.97;;;3.90;;
26337;SDS011;14050;50.950;4.460;2023-04-25T22:46:18;10.63;;;4.20;;
26337;SDS011;14050;50.950;4.460;2023-04-25T22:51:18;10.90;;;4.20;;
26337;SDS011;14050;50.950;4.460;2023-04-25T22:56:19;9.90;;;4.50;;
26337;SDS011;14050;50.950;4.460;2023-04-25T23:01:19;9.10;;;4.73;;
26337;SDS011;14050;50.950;4.460;2023-04-25T23:06:20;11.80;;;4.80;;
26337;SDS011;14050;50.950;4.460;2023-04-25T23:11:20;11.63;;;5.10;;
26337;SDS011;14050;50.950;4.460;2023-04-25T23:16:21;16.63;;;5.13;;
26337;SDS011;14050;50.950;4.460;2023-04-25T23:21:21;11.25;;;4.82;;
26337;SDS011;14050;50.950;4.460;2023-04-25T23:26:22;12.93;;;4.70;;
26337;SDS011;14050;50.950;4.460;2023-04-25T23:31:22;10.70;;;4.40;;
26337;SDS011;14050;50.950;4.460;2023-04-25T23:36:22;16.60;;;4.77;;
26337;SDS011;14050;50.950;4.460;2023-04-25T23:41:23;16.40;;;5.18;;
26337;SDS011;14050;50.950;4.460;2023-04-25T23:46:24;10.65;;;4.65;;
26337;SDS011;14050;50.950;4.460;2023-04-25T23:51:27;9.77;;;5.55;;
26337;SDS011;14050;50.950;4.460;2023-04-25T23:56:28;9.80;;;4.88;;
